sensor_id;sensor_type;location;lat;lon;timestamp;P1;durP1;ratioP1;P2;durP2;ratioP2
18501;SDS011;68437;52.236;5.710;2023-04-03T00:01:27;6.60;;;2.57;;
18501;SDS011;68437;52.236;5.710;2023-04-03T00:03:54;4.80;;;2.40;;
18501;SDS011;68437;52.236;5.710;2023-04-03T00:06:23;6.13;;;2.20;;
18501;SDS011;68437;52.236;5.710;2023-04-03T00:08:51;4.97;;;2.30;;
18501;SDS011;68437;52.236;5.710;2023-04-03T00:11:18;6.27;;;2.30;;
18501;SDS011;68437;52.236;5.710;2023-04-03T00:13:46;7.17;;;2.47;;
18501;SDS011;68437;52.236;5.710;2023-04-03T00:16:13;5.23;;;2.60;;
18501;SDS011;68437;52.236;5.710;2023-04-03T00:18:40;5.20;;;2.20;;
18501;SDS011;68437;52.236;5.710;2023-04-03T00:21:07;7.97;;;2.40;;
18501;SDS011;68437;52.236;5.710;2023-04-03T00:23:37;5.07;;;2.60;;
18501;SDS011;68437;52.236;5.710;2023-04-03T00:26:04;7.70;;;2.50;;
18501;SDS011;68437;52.236;5.710;2023-04-03T00:28:31;5.87;;;2.80;;
18501;SDS011;68437;52.236;5.710;2023-04-03T00:30:58;6.60;;;2.50;;
18501;SDS011;68437;52.236;5.710;2023-04-03T00:33:24;7.90;;;2.87;;
18501;SDS011;68437;52.236;5.710;2023-04-03T00:35:51;6.10;;;2.40;;
18501;SDS011;68437;52.236;5.710;2023-04-03T00:38:18;5.70;;;2.40;;
18501;SDS011;68437;52.236;5.710;2023-04-03T00:40:47;5.97;;;2.57;;
18501;SDS011;68437;52.236;5.710;2023-04-03T00:43:15;9.37;;;3.00;;
18501;SDS011;68437;52.236;5.710;2023-04-03T00:45:44;5.03;;;2.53;;
18501;SDS011;68437;52.236;5.710;2023-04-03T00:48:13;9.90;;;3.00;;
18501;SDS011;68437;52.236;5.710;2023-04-03T00:50:43;5.80;;;2.50;;
18501;SDS011;68437;52.236;5.710;2023-04-03T00:53:11;8.23;;;3.10;;
18501;SDS011;68437;52.236;5.710;2023-04-03T00:55:42;10.90;;;3.30;;
18501;SDS011;68437;52.236;5.710;2023-04-03T00:58:11;8.90;;;3.10;;
18501;SDS011;68437;52.236;5.710;2023-04-03T01:00:40;5.80;;;2.50;;
18501;SDS011;68437;52.236;5.710;2023-04-03T01:03:12;7.47;;;2.97;;
18501;SDS011;68437;52.236;5.710;2023-04-03T01:05:39;6.10;;;2.77;;
18501;SDS011;68437;52.236;5.710;2023-04-03T01:08:06;6.43;;;2.83;;
18501;SDS011;68437;52.236;5.710;2023-04-03T01:10:33;7.77;;;3.10;;
18501;SDS011;68437;52.236;5.710;2023-04-03T01:13:00;9.77;;;2.73;;
18501;SDS011;68437;52.236;5.710;2023-04-03T01:15:29;7.17;;;2.83;;
18501;SDS011;68437;52.236;5.710;2023-04-03T01:17:59;6.27;;;2.83;;
18501;SDS011;68437;52.236;5.710;2023-04-03T01:20:42;6.27;;;2.90;;
18501;SDS011;68437;52.236;5.710;2023-04-03T01:23:36;6.57;;;2.60;;
18501;SDS011;68437;52.236;5.710;2023-04-03T01:26:11;6.10;;;2.80;;
18501;SDS011;68437;52.236;5.710;2023-04-03T01:28:38;8.40;;;2.90;;
18501;SDS011;68437;52.236;5.710;2023-04-03T01:31:10;6.57;;;2.80;;
18501;SDS011;68437;52.236;5.710;2023-04-03T01:33:42;6.53;;;3.03;;
18501;SDS011;68437;52.236;5.710;2023-04-03T01:36:13;5.87;;;2.87;;
18501;SDS011;68437;52.236;5.710;2023-04-03T01:38:41;6.90;;;2.90;;
18501;SDS011;68437;52.236;5.710;2023-04-03T01:41:08;7.33;;;2.77;;
18501;SDS011;68437;52.236;5.710;2023-04-03T01:43:35;6.20;;;2.93;;
18501;SDS011;68437;52.236;5.710;2023-04-03T01:46:02;6.87;;;3.00;;
18501;SDS011;68437;52.236;5.710;2023-04-03T01:48:28;13.23;;;3.07;;
18501;SDS011;68437;52.236;5.710;2023-04-03T01:50:57;9.47;;;3.30;;
18501;SDS011;68437;52.236;5.710;2023-04-03T01:53:23;5.93;;;2.90;;
18501;SDS011;68437;52.236;5.710;2023-04-03T01:55:50;10.60;;;3.10;;
18501;SDS011;68437;52.236;5.710;2023-04-03T01:58:17;7.03;;;2.90;;
18501;SDS011;68437;52.236;5.710;2023-04-03T02:00:44;7.83;;;3.33;;
18501;SDS011;68437;52.236;5.710;2023-04-03T02:03:11;8.40;;;3.20;;
18501;SDS011;68437;52.236;5.710;2023-04-03T02:05:38;5.57;;;2.80;;
18501;SDS011;68437;52.236;5.710;2023-04-03T02:08:06;8.57;;;3.27;;
18501;SDS011;68437;52.236;5.710;2023-04-03T02:10:33;10.23;;;3.30;;
18501;SDS011;68437;52.236;5.710;2023-04-03T02:13:00;8.53;;;3.33;;
18501;SDS011;68437;52.236;5.710;2023-04-03T02:15:27;10.53;;;3.30;;
18501;SDS011;68437;52.236;5.710;2023-04-03T02:17:53;10.67;;;3.27;;
18501;SDS011;68437;52.236;5.710;2023-04-03T02:20:20;6.23;;;3.37;;
18501;SDS011;68437;52.236;5.710;2023-04-03T02:22:47;7.30;;;2.90;;
18501;SDS011;68437;52.236;5.710;2023-04-03T02:25:16;6.87;;;3.17;;
18501;SDS011;68437;52.236;5.710;2023-04-03T02:27:43;9.73;;;3.20;;
18501;SDS011;68437;52.236;5.710;2023-04-03T02:30:10;6.47;;;3.10;;
18501;SDS011;68437;52.236;5.710;2023-04-03T02:32:39;9.67;;;3.50;;
18501;SDS011;68437;52.236;5.710;2023-04-03T02:35:07;8.93;;;3.30;;
18501;SDS011;68437;52.236;5.710;2023-04-03T02:37:34;8.67;;;3.40;;
18501;SDS011;68437;52.236;5.710;2023-04-03T02:40:01;8.13;;;3.67;;
18501;SDS011;68437;52.236;5.710;2023-04-03T02:42:30;13.57;;;3.60;;
18501;SDS011;68437;52.236;5.710;2023-04-03T02:44:57;11.73;;;3.97;;
18501;SDS011;68437;52.236;5.710;2023-04-03T02:47:25;8.53;;;3.37;;
18501;SDS011;68437;52.236;5.710;2023-04-03T02:49:52;7.67;;;3.43;;
18501;SDS011;68437;52.236;5.710;2023-04-03T02:52:19;11.30;;;3.70;;
18501;SDS011;68437;52.236;5.710;2023-04-03T02:54:46;11.53;;;3.87;;
18501;SDS011;68437;52.236;5.710;2023-04-03T02:57:12;7.23;;;3.60;;
18501;SDS011;68437;52.236;5.710;2023-04-03T02:59:41;9.67;;;3.53;;
18501;SDS011;68437;52.236;5.710;2023-04-03T03:02:07;9.73;;;3.70;;
18501;SDS011;68437;52.236;5.710;2023-04-03T03:04:34;8.53;;;3.33;;
18501;SDS011;68437;52.236;5.710;2023-04-03T03:07:01;10.37;;;4.00;;
18501;SDS011;68437;52.236;5.710;2023-04-03T03:09:29;9.87;;;4.07;;
18501;SDS011;68437;52.236;5.710;2023-04-03T03:11:55;12.70;;;3.87;;
18501;SDS011;68437;52.236;5.710;2023-04-03T03:14:23;9.07;;;4.10;;
18501;SDS011;68437;52.236;5.710;2023-04-03T03:16:51;11.57;;;4.20;;
18501;SDS011;68437;52.236;5.710;2023-04-03T03:19:18;10.90;;;4.10;;
18501;SDS011;68437;52.236;5.710;2023-04-03T03:21:44;11.80;;;4.07;;
18501;SDS011;68437;52.236;5.710;2023-04-03T03:24:11;10.73;;;4.00;;
18501;SDS011;68437;52.236;5.710;2023-04-03T03:26:38;13.33;;;4.30;;
18501;SDS011;68437;52.236;5.710;2023-04-03T03:29:05;12.23;;;4.10;;
18501;SDS011;68437;52.236;5.710;2023-04-03T03:31:32;8.00;;;3.60;;
18501;SDS011;68437;52.236;5.710;2023-04-03T03:34:00;10.83;;;4.00;;
18501;SDS011;68437;52.236;5.710;2023-04-03T03:36:27;13.83;;;4.33;;
18501;SDS011;68437;52.236;5.710;2023-04-03T03:38:54;14.50;;;5.00;;
18501;SDS011;68437;52.236;5.710;2023-04-03T03:41:20;8.13;;;4.10;;
18501;SDS011;68437;52.236;5.710;2023-04-03T03:43:48;9.67;;;4.17;;
18501;SDS011;68437;52.236;5.710;2023-04-03T03:46:14;11.73;;;4.60;;
18501;SDS011;68437;52.236;5.710;2023-04-03T03:48:41;11.70;;;4.57;;
18501;SDS011;68437;52.236;5.710;2023-04-03T03:51:09;18.43;;;4.40;;
18501;SDS011;68437;52.236;5.710;2023-04-03T03:53:36;10.70;;;4.80;;
18501;SDS011;68437;52.236;5.710;2023-04-03T03:56:03;11.73;;;4.43;;
18501;SDS011;68437;52.236;5.710;2023-04-03T03:58:30;11.13;;;4.80;;
18501;SDS011;68437;52.236;5.710;2023-04-03T04:00:59;11.40;;;4.60;;
18501;SDS011;68437;52.236;5.710;2023-04-03T04:03:27;15.27;;;5.40;;
18501;SDS011;68437;52.236;5.710;2023-04-03T04:05:53;15.43;;;5.33;;
18501;SDS011;68437;52.236;5.710;2023-04-03T04:08:22;11.30;;;4.80;;
18501;SDS011;68437;52.236;5.710;2023-04-03T04:10:48;16.93;;;5.07;;
18501;SDS011;68437;52.236;5.710;2023-04-03T04:13:15;11.10;;;4.60;;
18501;SDS011;68437;52.236;5.710;2023-04-03T04:15:42;18.93;;;5.30;;
18501;SDS011;68437;52.236;5.710;2023-04-03T04:18:09;12.60;;;5.93;;
18501;SDS011;68437;52.236;5.710;2023-04-03T04:20:36;13.30;;;5.47;;
18501;SDS011;68437;52.236;5.710;2023-04-03T04:23:03;12.57;;;5.33;;
18501;SDS011;68437;52.236;5.710;2023-04-03T04:25:31;14.87;;;5.50;;
18501;SDS011;68437;52.236;5.710;2023-04-03T04:27:58;17.03;;;5.73;;
18501;SDS011;68437;52.236;5.710;2023-04-03T04:30:25;12.33;;;5.40;;
18501;SDS011;68437;52.236;5.710;2023-04-03T04:32:52;11.80;;;5.77;;
18501;SDS011;68437;52.236;5.710;2023-04-03T04:35:19;14.17;;;5.97;;
18501;SDS011;68437;52.236;5.710;2023-04-03T04:37:46;12.43;;;5.60;;
18501;SDS011;68437;52.236;5.710;2023-04-03T04:40:13;13.40;;;5.80;;
18501;SDS011;68437;52.236;5.710;2023-04-03T04:42:41;14.07;;;5.63;;
18501;SDS011;68437;52.236;5.710;2023-04-03T04:45:08;16.40;;;5.57;;
18501;SDS011;68437;52.236;5.710;2023-04-03T04:47:35;10.60;;;5.13;;
18501;SDS011;68437;52.236;5.710;2023-04-03T04:50:02;15.07;;;5.63;;
18501;SDS011;68437;52.236;5.710;2023-04-03T04:52:29;14.70;;;5.67;;
18501;SDS011;68437;52.236;5.710;2023-04-03T04:54:56;14.23;;;5.23;;
18501;SDS011;68437;52.236;5.710;2023-04-03T04:57:23;11.97;;;5.53;;
18501;SDS011;68437;52.236;5.710;2023-04-03T04:59:51;12.23;;;5.87;;
18501;SDS011;68437;52.236;5.710;2023-04-03T05:02:18;12.73;;;5.87;;
18501;SDS011;68437;52.236;5.710;2023-04-03T05:04:45;17.57;;;5.60;;
18501;SDS011;68437;52.236;5.710;2023-04-03T05:07:12;11.47;;;5.33;;
18501;SDS011;68437;52.236;5.710;2023-04-03T05:09:38;15.47;;;5.40;;
18501;SDS011;68437;52.236;5.710;2023-04-03T05:12:07;14.67;;;5.33;;
18501;SDS011;68437;52.236;5.710;2023-04-03T05:14:34;12.43;;;5.30;;
18501;SDS011;68437;52.236;5.710;2023-04-03T05:17:02;13.50;;;5.40;;
18501;SDS011;68437;52.236;5.710;2023-04-03T05:19:29;13.03;;;5.37;;
18501;SDS011;68437;52.236;5.710;2023-04-03T05:21:55;12.47;;;5.70;;
18501;SDS011;68437;52.236;5.710;2023-04-03T05:24:22;13.63;;;5.90;;
18501;SDS011;68437;52.236;5.710;2023-04-03T05:26:49;13.60;;;5.83;;
18501;SDS011;68437;52.236;5.710;2023-04-03T05:29:16;18.13;;;5.83;;
18501;SDS011;68437;52.236;5.710;2023-04-03T05:31:43;15.93;;;6.43;;
18501;SDS011;68437;52.236;5.710;2023-04-03T05:34:11;16.50;;;6.03;;
18501;SDS011;68437;52.236;5.710;2023-04-03T05:36:38;15.07;;;6.37;;
18501;SDS011;68437;52.236;5.710;2023-04-03T05:39:05;10.43;;;5.60;;
18501;SDS011;68437;52.236;5.710;2023-04-03T05:41:32;11.97;;;5.63;;
18501;SDS011;68437;52.236;5.710;2023-04-03T05:43:58;20.23;;;5.97;;
18501;SDS011;68437;52.236;5.710;2023-04-03T05:46:25;14.47;;;6.13;;
18501;SDS011;68437;52.236;5.710;2023-04-03T05:48:52;18.37;;;5.67;;
18501;SDS011;68437;52.236;5.710;2023-04-03T05:51:21;18.73;;;5.60;;
18501;SDS011;68437;52.236;5.710;2023-04-03T05:53:51;12.77;;;5.73;;
18501;SDS011;68437;52.236;5.710;2023-04-03T05:56:21;16.03;;;5.57;;
18501;SDS011;68437;52.236;5.710;2023-04-03T05:58:48;13.33;;;5.50;;
18501;SDS011;68437;52.236;5.710;2023-04-03T06:01:14;13.40;;;5.57;;
18501;SDS011;68437;52.236;5.710;2023-04-03T06:03:42;13.63;;;5.17;;
18501;SDS011;68437;52.236;5.710;2023-04-03T06:06:10;12.50;;;4.70;;
18501;SDS011;68437;52.236;5.710;2023-04-03T06:08:40;19.53;;;5.00;;
18501;SDS011;68437;52.236;5.710;2023-04-03T06:11:08;12.67;;;4.60;;
18501;SDS011;68437;52.236;5.710;2023-04-03T06:13:35;14.40;;;5.00;;
18501;SDS011;68437;52.236;5.710;2023-04-03T06:16:03;16.37;;;5.20;;
18501;SDS011;68437;52.236;5.710;2023-04-03T06:18:30;8.87;;;4.20;;
18501;SDS011;68437;52.236;5.710;2023-04-03T06:20:57;12.13;;;4.53;;
18501;SDS011;68437;52.236;5.710;2023-04-03T06:23:25;10.47;;;4.67;;
18501;SDS011;68437;52.236;5.710;2023-04-03T06:25:54;15.57;;;4.50;;
18501;SDS011;68437;52.236;5.710;2023-04-03T06:28:20;14.70;;;4.83;;
18501;SDS011;68437;52.236;5.710;2023-04-03T06:30:47;11.03;;;4.03;;
18501;SDS011;68437;52.236;5.710;2023-04-03T06:33:14;12.73;;;4.03;;
18501;SDS011;68437;52.236;5.710;2023-04-03T06:35:41;10.70;;;4.20;;
18501;SDS011;68437;52.236;5.710;2023-04-03T06:38:08;11.73;;;4.13;;
18501;SDS011;68437;52.236;5.710;2023-04-03T06:40:36;9.70;;;3.90;;
18501;SDS011;68437;52.236;5.710;2023-04-03T06:43:04;10.10;;;3.67;;
18501;SDS011;68437;52.236;5.710;2023-04-03T06:45:32;9.53;;;4.00;;
18501;SDS011;68437;52.236;5.710;2023-04-03T06:47:59;10.33;;;3.93;;
18501;SDS011;68437;52.236;5.710;2023-04-03T06:50:27;14.23;;;4.03;;
18501;SDS011;68437;52.236;5.710;2023-04-03T06:52:53;13.13;;;3.90;;
18501;SDS011;68437;52.236;5.710;2023-04-03T06:55:20;10.40;;;3.70;;
18501;SDS011;68437;52.236;5.710;2023-04-03T06:57:47;7.97;;;3.87;;
18501;SDS011;68437;52.236;5.710;2023-04-03T07:00:16;9.37;;;3.50;;
18501;SDS011;68437;52.236;5.710;2023-04-03T07:02:43;12.37;;;3.70;;
18501;SDS011;68437;52.236;5.710;2023-04-03T07:05:11;11.13;;;3.50;;
18501;SDS011;68437;52.236;5.710;2023-04-03T07:07:38;10.03;;;3.37;;
18501;SDS011;68437;52.236;5.710;2023-04-03T07:10:06;13.20;;;3.67;;
18501;SDS011;68437;52.236;5.710;2023-04-03T07:12:34;9.67;;;3.40;;
18501;SDS011;68437;52.236;5.710;2023-04-03T07:15:01;8.30;;;3.60;;
18501;SDS011;68437;52.236;5.710;2023-04-03T07:17:30;11.93;;;3.20;;
18501;SDS011;68437;52.236;5.710;2023-04-03T07:19:57;9.50;;;3.40;;
18501;SDS011;68437;52.236;5.710;2023-04-03T07:22:24;10.27;;;3.40;;
18501;SDS011;68437;52.236;5.710;2023-04-03T07:24:50;8.93;;;3.43;;
18501;SDS011;68437;52.236;5.710;2023-04-03T07:27:17;8.40;;;3.20;;
18501;SDS011;68437;52.236;5.710;2023-04-03T07:29:44;7.87;;;3.20;;
18501;SDS011;68437;52.236;5.710;2023-04-03T07:32:13;12.23;;;3.40;;
18501;SDS011;68437;52.236;5.710;2023-04-03T07:34:41;8.10;;;2.80;;
18501;SDS011;68437;52.236;5.710;2023-04-03T07:37:08;5.17;;;2.77;;
18501;SDS011;68437;52.236;5.710;2023-04-03T07:39:35;6.03;;;2.80;;
18501;SDS011;68437;52.236;5.710;2023-04-03T07:42:02;9.37;;;2.97;;
18501;SDS011;68437;52.236;5.710;2023-04-03T07:44:28;10.17;;;3.20;;
18501;SDS011;68437;52.236;5.710;2023-04-03T07:46:55;7.23;;;2.93;;
18501;SDS011;68437;52.236;5.710;2023-04-03T07:49:22;9.53;;;3.00;;
18501;SDS011;68437;52.236;5.710;2023-04-03T07:51:51;10.87;;;2.90;;
18501;SDS011;68437;52.236;5.710;2023-04-03T07:54:18;8.53;;;2.97;;
18501;SDS011;68437;52.236;5.710;2023-04-03T07:56:45;8.97;;;2.47;;
18501;SDS011;68437;52.236;5.710;2023-04-03T07:59:11;9.20;;;2.83;;
18501;SDS011;68437;52.236;5.710;2023-04-03T08:01:38;8.73;;;2.60;;
18501;SDS011;68437;52.236;5.710;2023-04-03T08:04:05;10.33;;;2.60;;
18501;SDS011;68437;52.236;5.710;2023-04-03T08:06:32;7.83;;;2.50;;
18501;SDS011;68437;52.236;5.710;2023-04-03T08:09:03;6.13;;;2.50;;
18501;SDS011;68437;52.236;5.710;2023-04-03T08:11:30;7.63;;;2.70;;
18501;SDS011;68437;52.236;5.710;2023-04-03T08:13:57;7.03;;;2.20;;
18501;SDS011;68437;52.236;5.710;2023-04-03T08:16:24;7.53;;;2.47;;
18501;SDS011;68437;52.236;5.710;2023-04-03T08:18:52;6.83;;;2.23;;
18501;SDS011;68437;52.236;5.710;2023-04-03T08:21:20;3.40;;;1.90;;
18501;SDS011;68437;52.236;5.710;2023-04-03T08:23:47;9.77;;;2.13;;
18501;SDS011;68437;52.236;5.710;2023-04-03T08:26:16;7.93;;;1.95;;
18501;SDS011;68437;52.236;5.710;2023-04-03T08:28:45;4.20;;;2.03;;
18501;SDS011;68437;52.236;5.710;2023-04-03T08:31:13;6.80;;;2.27;;
18501;SDS011;68437;52.236;5.710;2023-04-03T08:33:43;4.27;;;1.70;;
18501;SDS011;68437;52.236;5.710;2023-04-03T08:36:15;4.57;;;2.00;;
18501;SDS011;68437;52.236;5.710;2023-04-03T08:38:44;6.77;;;1.90;;
18501;SDS011;68437;52.236;5.710;2023-04-03T08:41:13;6.13;;;1.90;;
18501;SDS011;68437;52.236;5.710;2023-04-03T08:43:48;7.38;;;1.70;;
18501;SDS011;68437;52.236;5.710;2023-04-03T08:46:24;6.07;;;1.80;;
18501;SDS011;68437;52.236;5.710;2023-04-03T08:49:02;5.25;;;1.60;;
18501;SDS011;68437;52.236;5.710;2023-04-03T08:51:30;4.90;;;1.80;;
18501;SDS011;68437;52.236;5.710;2023-04-03T08:53:59;5.63;;;1.60;;
18501;SDS011;68437;52.236;5.710;2023-04-03T08:56:28;3.67;;;1.13;;
18501;SDS011;68437;52.236;5.710;2023-04-03T08:58:58;7.73;;;1.60;;
18501;SDS011;68437;52.236;5.710;2023-04-03T09:01:29;3.50;;;1.20;;
18501;SDS011;68437;52.236;5.710;2023-04-03T09:03:59;6.10;;;1.27;;
18501;SDS011;68437;52.236;5.710;2023-04-03T09:06:28;2.50;;;1.23;;
18501;SDS011;68437;52.236;5.710;2023-04-03T09:09:02;2.00;;;1.20;;
18501;SDS011;68437;52.236;5.710;2023-04-03T09:11:41;2.30;;;1.20;;
18501;SDS011;68437;52.236;5.710;2023-04-03T09:14:19;2.50;;;1.00;;
18501;SDS011;68437;52.236;5.710;2023-04-03T09:16:53;2.65;;;1.15;;
18501;SDS011;68437;52.236;5.710;2023-04-03T09:19:25;2.72;;;1.00;;
18501;SDS011;68437;52.236;5.710;2023-04-03T09:22:02;3.60;;;1.02;;
18501;SDS011;68437;52.236;5.710;2023-04-03T09:24:37;1.75;;;0.82;;
18501;SDS011;68437;52.236;5.710;2023-04-03T09:27:05;2.15;;;1.13;;
18501;SDS011;68437;52.236;5.710;2023-04-03T09:29:37;2.45;;;1.02;;
18501;SDS011;68437;52.236;5.710;2023-04-03T09:32:18;1.90;;;1.02;;
18501;SDS011;68437;52.236;5.710;2023-04-03T09:34:48;1.45;;;0.90;;
18501;SDS011;68437;52.236;5.710;2023-04-03T09:40:04;2.45;;;0.85;;
18501;SDS011;68437;52.236;5.710;2023-04-03T09:42:32;4.07;;;1.27;;
18501;SDS011;68437;52.236;5.710;2023-04-03T09:45:21;3.28;;;1.00;;
18501;SDS011;68437;52.236;5.710;2023-04-03T09:47:57;2.70;;;0.98;;
18501;SDS011;68437;52.236;5.710;2023-04-03T09:50:31;2.35;;;0.82;;
18501;SDS011;68437;52.236;5.710;2023-04-03T09:52:59;2.22;;;1.00;;
18501;SDS011;68437;52.236;5.710;2023-04-03T09:55:31;3.10;;;0.80;;
18501;SDS011;68437;52.236;5.710;2023-04-03T09:57:59;1.25;;;0.90;;
18501;SDS011;68437;52.236;5.710;2023-04-03T10:00:30;4.30;;;1.00;;
18501;SDS011;68437;52.236;5.710;2023-04-03T10:02:59;3.13;;;1.00;;
18501;SDS011;68437;52.236;5.710;2023-04-03T10:05:28;2.63;;;1.02;;
18501;SDS011;68437;52.236;5.710;2023-04-03T10:08:15;3.67;;;1.00;;
18501;SDS011;68437;52.236;5.710;2023-04-03T10:10:49;1.50;;;0.85;;
18501;SDS011;68437;52.236;5.710;2023-04-03T10:13:36;1.73;;;0.80;;
18501;SDS011;68437;52.236;5.710;2023-04-03T10:16:17;2.33;;;1.00;;
18501;SDS011;68437;52.236;5.710;2023-04-03T10:18:47;2.78;;;0.82;;
18501;SDS011;68437;52.236;5.710;2023-04-03T10:21:26;2.38;;;0.88;;
18501;SDS011;68437;52.236;5.710;2023-04-03T10:24:02;1.65;;;0.90;;
18501;SDS011;68437;52.236;5.710;2023-04-03T10:26:38;2.78;;;0.80;;
18501;SDS011;68437;52.236;5.710;2023-04-03T10:29:13;2.33;;;0.77;;
18501;SDS011;68437;52.236;5.710;2023-04-03T10:31:50;2.92;;;0.90;;
18501;SDS011;68437;52.236;5.710;2023-04-03T10:34:27;3.60;;;0.80;;
18501;SDS011;68437;52.236;5.710;2023-04-03T10:36:58;2.15;;;0.90;;
18501;SDS011;68437;52.236;5.710;2023-04-03T10:39:34;4.00;;;1.20;;
18501;SDS011;68437;52.236;5.710;2023-04-03T10:42:10;1.90;;;0.88;;
18501;SDS011;68437;52.236;5.710;2023-04-03T10:44:42;1.02;;;0.80;;
18501;SDS011;68437;52.236;5.710;2023-04-03T10:47:22;2.28;;;0.90;;
18501;SDS011;68437;52.236;5.710;2023-04-03T10:49:56;2.42;;;0.95;;
18501;SDS011;68437;52.236;5.710;2023-04-03T10:52:31;1.95;;;0.95;;
18501;SDS011;68437;52.236;5.710;2023-04-03T10:55:06;5.05;;;1.30;;
18501;SDS011;68437;52.236;5.710;2023-04-03T10:57:57;1.95;;;0.90;;
18501;SDS011;68437;52.236;5.710;2023-04-03T11:00:26;2.55;;;1.10;;
18501;SDS011;68437;52.236;5.710;2023-04-03T11:03:03;2.97;;;0.90;;
18501;SDS011;68437;52.236;5.710;2023-04-03T11:05:34;3.30;;;1.08;;
18501;SDS011;68437;52.236;5.710;2023-04-03T11:08:08;2.38;;;0.90;;
18501;SDS011;68437;52.236;5.710;2023-04-03T11:10:42;1.92;;;1.00;;
18501;SDS011;68437;52.236;5.710;2023-04-03T11:13:11;4.45;;;0.98;;
18501;SDS011;68437;52.236;5.710;2023-04-03T11:15:42;2.10;;;1.00;;
18501;SDS011;68437;52.236;5.710;2023-04-03T11:18:14;6.60;;;0.93;;
18501;SDS011;68437;52.236;5.710;2023-04-03T11:20:47;2.50;;;0.90;;
18501;SDS011;68437;52.236;5.710;2023-04-03T11:23:24;3.60;;;0.90;;
18501;SDS011;68437;52.236;5.710;2023-04-03T11:25:53;2.33;;;1.00;;
18501;SDS011;68437;52.236;5.710;2023-04-03T11:28:24;2.13;;;1.00;;
18501;SDS011;68437;52.236;5.710;2023-04-03T11:30:52;3.63;;;1.00;;
18501;SDS011;68437;52.236;5.710;2023-04-03T11:33:32;2.97;;;1.00;;
18501;SDS011;68437;52.236;5.710;2023-04-03T11:36:10;2.55;;;0.98;;
18501;SDS011;68437;52.236;5.710;2023-04-03T11:38:45;2.67;;;1.13;;
18501;SDS011;68437;52.236;5.710;2023-04-03T11:41:15;7.47;;;1.10;;
18501;SDS011;68437;52.236;5.710;2023-04-03T11:43:48;2.40;;;1.00;;
18501;SDS011;68437;52.236;5.710;2023-04-03T11:46:30;3.33;;;0.90;;
18501;SDS011;68437;52.236;5.710;2023-04-03T11:58:18;2.65;;;1.23;;
18501;SDS011;68437;52.236;5.710;2023-04-03T12:00:50;6.18;;;1.40;;
18501;SDS011;68437;52.236;5.710;2023-04-03T12:03:31;2.95;;;1.05;;
18501;SDS011;68437;52.236;5.710;2023-04-03T12:09:34;3.05;;;1.20;;
18501;SDS011;68437;52.236;5.710;2023-04-03T12:12:26;2.95;;;1.10;;
18501;SDS011;68437;52.236;5.710;2023-04-03T12:21:17;1.73;;;0.95;;
18501;SDS011;68437;52.236;5.710;2023-04-03T12:23:58;2.65;;;1.20;;
18501;SDS011;68437;52.236;5.710;2023-04-03T12:26:44;2.05;;;1.15;;
18501;SDS011;68437;52.236;5.710;2023-04-03T12:29:20;5.88;;;1.35;;
18501;SDS011;68437;52.236;5.710;2023-04-03T12:31:54;2.83;;;1.17;;
18501;SDS011;68437;52.236;5.710;2023-04-03T12:34:38;4.03;;;1.38;;
18501;SDS011;68437;52.236;5.710;2023-04-03T12:37:21;2.17;;;1.00;;
18501;SDS011;68437;52.236;5.710;2023-04-03T12:40:03;2.50;;;1.15;;
18501;SDS011;68437;52.236;5.710;2023-04-03T12:42:42;4.18;;;1.30;;
18501;SDS011;68437;52.236;5.710;2023-04-03T12:45:30;3.65;;;1.30;;
18501;SDS011;68437;52.236;5.710;2023-04-03T12:48:08;2.80;;;1.10;;
18501;SDS011;68437;52.236;5.710;2023-04-03T12:50:39;4.18;;;1.30;;
18501;SDS011;68437;52.236;5.710;2023-04-03T12:53:11;3.55;;;1.40;;
18501;SDS011;68437;52.236;5.710;2023-04-03T12:55:42;3.60;;;1.10;;
18501;SDS011;68437;52.236;5.710;2023-04-03T12:58:15;5.88;;;1.38;;
18501;SDS011;68437;52.236;5.710;2023-04-03T13:00:48;2.67;;;1.20;;
18501;SDS011;68437;52.236;5.710;2023-04-03T13:03:26;4.55;;;1.42;;
18501;SDS011;68437;52.236;5.710;2023-04-03T13:05:54;3.08;;;1.30;;
18501;SDS011;68437;52.236;5.710;2023-04-03T13:08:23;3.33;;;1.50;;
18501;SDS011;68437;52.236;5.710;2023-04-03T13:10:52;4.53;;;1.30;;
18501;SDS011;68437;52.236;5.710;2023-04-03T13:13:22;2.67;;;1.25;;
18501;SDS011;68437;52.236;5.710;2023-04-03T13:15:50;4.57;;;1.50;;
18501;SDS011;68437;52.236;5.710;2023-04-03T13:18:25;3.50;;;1.20;;
18501;SDS011;68437;52.236;5.710;2023-04-03T13:20:58;3.25;;;1.50;;
18501;SDS011;68437;52.236;5.710;2023-04-03T13:23:29;4.10;;;1.50;;
18501;SDS011;68437;52.236;5.710;2023-04-03T13:25:57;2.42;;;1.30;;
18501;SDS011;68437;52.236;5.710;2023-04-03T13:28:28;5.45;;;1.50;;
18501;SDS011;68437;52.236;5.710;2023-04-03T13:31:00;3.70;;;1.50;;
18501;SDS011;68437;52.236;5.710;2023-04-03T13:33:31;5.07;;;1.50;;
18501;SDS011;68437;52.236;5.710;2023-04-03T13:36:03;2.83;;;1.55;;
18501;SDS011;68437;52.236;5.710;2023-04-03T13:38:32;4.45;;;1.60;;
18501;SDS011;68437;52.236;5.710;2023-04-03T13:41:02;6.28;;;1.60;;
18501;SDS011;68437;52.236;5.710;2023-04-03T13:43:33;4.13;;;1.50;;
18501;SDS011;68437;52.236;5.710;2023-04-03T13:48:52;3.42;;;1.40;;
18501;SDS011;68437;52.236;5.710;2023-04-03T13:51:22;5.97;;;1.42;;
18501;SDS011;68437;52.236;5.710;2023-04-03T13:53:52;3.25;;;1.55;;
18501;SDS011;68437;52.236;5.710;2023-04-03T13:56:22;4.35;;;1.70;;
18501;SDS011;68437;52.236;5.710;2023-04-03T13:58:57;4.40;;;1.58;;
18501;SDS011;68437;52.236;5.710;2023-04-03T14:01:34;5.47;;;1.52;;
18501;SDS011;68437;52.236;5.710;2023-04-03T14:04:11;4.75;;;1.60;;
18501;SDS011;68437;52.236;5.710;2023-04-03T14:06:42;3.30;;;1.40;;
18501;SDS011;68437;52.236;5.710;2023-04-03T14:09:09;4.35;;;1.60;;
18501;SDS011;68437;52.236;5.710;2023-04-03T14:11:36;5.43;;;1.70;;
18501;SDS011;68437;52.236;5.710;2023-04-03T14:14:06;4.40;;;1.77;;
18501;SDS011;68437;52.236;5.710;2023-04-03T14:16:40;6.90;;;1.90;;
18501;SDS011;68437;52.236;5.710;2023-04-03T14:19:22;5.60;;;1.80;;
18501;SDS011;68437;52.236;5.710;2023-04-03T14:21:51;4.13;;;1.88;;
18501;SDS011;68437;52.236;5.710;2023-04-03T14:24:20;8.13;;;1.80;;
18501;SDS011;68437;52.236;5.710;2023-04-03T14:26:48;4.45;;;1.65;;
18501;SDS011;68437;52.236;5.710;2023-04-03T14:29:15;5.18;;;2.08;;
18501;SDS011;68437;52.236;5.710;2023-04-03T14:31:44;2.92;;;1.58;;
18501;SDS011;68437;52.236;5.710;2023-04-03T14:34:11;5.22;;;1.65;;
18501;SDS011;68437;52.236;5.710;2023-04-03T14:36:39;5.63;;;1.80;;
18501;SDS011;68437;52.236;5.710;2023-04-03T14:39:08;4.30;;;1.80;;
18501;SDS011;68437;52.236;5.710;2023-04-03T14:41:38;7.32;;;1.83;;
18501;SDS011;68437;52.236;5.710;2023-04-03T14:44:05;5.45;;;1.83;;
18501;SDS011;68437;52.236;5.710;2023-04-03T14:46:32;5.95;;;1.70;;
18501;SDS011;68437;52.236;5.710;2023-04-03T14:49:03;7.90;;;1.90;;
18501;SDS011;68437;52.236;5.710;2023-04-03T14:51:36;6.18;;;2.08;;
18501;SDS011;68437;52.236;5.710;2023-04-03T14:54:03;8.05;;;1.80;;
18501;SDS011;68437;52.236;5.710;2023-04-03T14:56:31;4.10;;;1.58;;
18501;SDS011;68437;52.236;5.710;2023-04-03T14:58:58;3.88;;;1.83;;
18501;SDS011;68437;52.236;5.710;2023-04-03T15:01:27;3.97;;;1.80;;
18501;SDS011;68437;52.236;5.710;2023-04-03T15:03:54;9.85;;;1.63;;
18501;SDS011;68437;52.236;5.710;2023-04-03T15:06:22;4.38;;;1.60;;
18501;SDS011;68437;52.236;5.710;2023-04-03T15:08:49;5.65;;;1.92;;
18501;SDS011;68437;52.236;5.710;2023-04-03T15:11:16;7.40;;;1.98;;
18501;SDS011;68437;52.236;5.710;2023-04-03T15:13:43;3.60;;;1.60;;
18501;SDS011;68437;52.236;5.710;2023-04-03T15:16:15;3.83;;;1.73;;
18501;SDS011;68437;52.236;5.710;2023-04-03T15:18:43;5.15;;;1.80;;
18501;SDS011;68437;52.236;5.710;2023-04-03T15:21:11;6.55;;;1.67;;
18501;SDS011;68437;52.236;5.710;2023-04-03T15:23:39;5.68;;;1.60;;